createdAt,value
2023-04-15T00:06:25.785Z,75.4
2023-04-15T00:16:25.728Z,75.6
2023-04-15T00:26:25.729Z,75.8
2023-04-15T00:36:25.687Z,75.8
2023-04-15T00:46:25.654Z,75.8
2023-04-15T00:56:25.627Z,76.2
2023-04-15T01:06:25.582Z,76.8
2023-04-15T01:16:25.605Z,77
2023-04-15T01:26:25.527Z,76.6
2023-04-15T01:36:25.594Z,77.2
2023-04-15T01:46:25.492Z,78.2
2023-04-15T01:56:25.448Z,79.4
2023-04-15T02:06:25.434Z,80
2023-04-15T02:16:25.423Z,80.4
2023-04-15T02:26:25.407Z,81
2023-04-15T02:36:25.343Z,82.2
2023-04-15T02:46:25.347Z,82.8
2023-04-15T02:56:25.311Z,83
2023-04-15T03:06:25.327Z,83.8
2023-04-15T03:16:25.249Z,84.4
2023-04-15T03:26:25.242Z,83.8
2023-04-15T03:36:25.184Z,84.2
2023-04-15T03:46:25.180Z,85.4
2023-04-15T03:56:25.135Z,85.8
2023-04-15T04:06:25.131Z,86.2
2023-04-15T04:16:25.101Z,86.8
2023-04-15T04:26:25.087Z,87.2
2023-04-15T04:36:25.036Z,88.2
2023-04-15T04:46:25.017Z,88.4
2023-04-15T04:56:25.005Z,88.8
2023-04-15T05:06:24.973Z,89
2023-04-15T05:16:24.977Z,90
2023-04-15T05:26:24.938Z,89
2023-04-15T05:36:24.953Z,87.6
2023-04-15T05:46:24.883Z,86.4
2023-04-15T05:56:24.860Z,85.8
2023-04-15T06:06:24.823Z,83.2
2023-04-15T06:16:24.804Z,78.6
2023-04-15T06:26:24.771Z,77
2023-04-15T06:36:24.770Z,74.8
2023-04-15T06:46:24.710Z,74
2023-04-15T06:56:24.683Z,72
2023-04-15T07:06:24.635Z,69
2023-04-15T07:16:24.828Z,66.2
2023-04-15T07:26:24.598Z,63.8
2023-04-15T07:36:24.610Z,62.4
2023-04-15T07:46:24.556Z,62.4
2023-04-15T07:56:24.640Z,61.6
2023-04-15T08:06:24.623Z,60.4
2023-04-15T08:16:24.478Z,58.8
2023-04-15T08:26:24.458Z,59.4
2023-04-15T08:36:24.367Z,59.2
2023-04-15T08:46:24.404Z,59.2
2023-04-15T08:56:24.338Z,58.8
2023-04-15T09:06:24.460Z,57.2
2023-04-15T09:16:24.240Z,58
2023-04-15T09:26:24.343Z,58.2
2023-04-15T09:36:24.210Z,56.6
2023-04-15T09:46:24.304Z,55.8
2023-04-15T09:56:24.307Z,56.2
2023-04-15T10:06:24.221Z,57
2023-04-15T10:16:24.113Z,57.6
2023-04-15T10:26:24.151Z,59
2023-04-15T10:36:24.026Z,59.4
2023-04-15T10:46:23.997Z,60.8
2023-04-15T10:56:23.931Z,61.6
2023-04-15T11:06:23.983Z,62
2023-04-15T11:16:23.925Z,63.2
2023-04-15T11:26:23.967Z,64.2
2023-04-15T11:36:23.778Z,64
2023-04-15T11:46:23.784Z,64.2
2023-04-15T11:56:23.756Z,65.4
2023-04-15T12:06:23.719Z,66.6
2023-04-15T12:16:23.680Z,68
2023-04-15T12:26:23.636Z,68.6
2023-04-15T12:36:23.670Z,69.6
2023-04-15T12:46:23.573Z,70.8
2023-04-15T12:56:23.581Z,71.8
2023-04-15T13:06:23.524Z,72.8
2023-04-15T13:16:23.531Z,75
2023-04-15T13:26:23.453Z,75
2023-04-15T13:36:23.439Z,76
2023-04-15T13:46:23.384Z,77
2023-04-15T13:56:23.367Z,79.2
2023-04-15T14:06:23.328Z,79.6
2023-04-15T14:16:23.324Z,80.6
2023-04-15T14:26:23.268Z,79.6
2023-04-15T14:36:23.243Z,78.8
2023-04-15T14:46:23.315Z,78.8
2023-04-15T14:56:23.181Z,79.6
2023-04-15T15:06:23.147Z,81.4
2023-04-15T15:16:23.148Z,82.2
2023-04-15T15:26:23.086Z,81
2023-04-15T15:36:23.051Z,81.6
2023-04-15T15:46:23.035Z,82.8
2023-04-15T15:56:23.022Z,83.6
2023-04-15T16:06:22.964Z,84.4
2023-04-15T16:16:22.953Z,84.8
2023-04-15T16:26:22.906Z,85.4
2023-04-15T16:36:22.884Z,85
2023-04-15T16:46:22.859Z,85
2023-04-15T16:56:22.838Z,85.2
2023-04-15T17:06:22.804Z,85.4
2023-04-15T17:16:22.769Z,85.2
2023-04-15T17:26:22.753Z,84.4
2023-04-15T17:36:22.718Z,84
2023-04-15T17:46:22.672Z,84.4
2023-04-15T17:56:22.651Z,86.4
2023-04-15T18:06:22.607Z,86.8
2023-04-15T18:26:22.586Z,86.4
2023-04-15T18:36:22.531Z,87.4
2023-04-15T18:46:22.532Z,89
2023-04-15T18:56:22.480Z,90.2
2023-04-15T19:06:22.448Z,90.2
2023-04-15T19:16:22.422Z,90.4
2023-04-15T19:26:22.405Z,91
2023-04-15T19:36:22.360Z,91.2
2023-04-15T19:46:22.349Z,91.6
2023-04-15T19:56:22.326Z,91.8
2023-04-15T20:06:22.287Z,92
2023-04-15T20:16:22.238Z,92.4
2023-04-15T20:26:22.237Z,93.2
2023-04-15T20:36:22.184Z,93.6
2023-04-15T20:46:22.163Z,94
2023-04-15T20:56:22.146Z,94.4
2023-04-15T21:06:22.110Z,94.4
2023-04-15T21:16:22.085Z,94.2
2023-04-15T21:26:22.035Z,94.2
2023-04-15T21:36:22.021Z,94.4
2023-04-15T21:46:22.013Z,94.4
2023-04-15T21:56:21.957Z,94.2
2023-04-15T22:06:21.958Z,94.2
2023-04-15T22:16:21.923Z,94.4
2023-04-15T22:26:21.879Z,94.4
2023-04-15T22:36:21.874Z,94.2
2023-04-15T22:46:21.817Z,94.2
2023-04-15T22:56:21.784Z,94.2
2023-04-15T23:06:21.756Z,94.2
2023-04-15T23:16:21.737Z,94.2
2023-04-15T23:26:21.720Z,94.2
2023-04-15T23:36:21.702Z,94.2
2023-04-15T23:46:21.670Z,94.4
2023-04-15T23:56:21.624Z,94.2
